sensor_id;sensor_type;location;lat;lon;timestamp;P1;durP1;ratioP1;P2;durP2;ratioP2
61962;SDS011;47927;42.646;23.096;2023-06-14T00:00:11;11.40;;;6.10;;
61962;SDS011;47927;42.646;23.096;2023-06-14T00:02:40;11.32;;;6.05;;
61962;SDS011;47927;42.646;23.096;2023-06-14T00:05:06;15.80;;;6.70;;
61962;SDS011;47927;42.646;23.096;2023-06-14T00:07:33;16.25;;;6.88;;
61962;SDS011;47927;42.646;23.096;2023-06-14T00:10:09;15.45;;;7.72;;
61962;SDS011;47927;42.646;23.096;2023-06-14T00:12:36;15.02;;;6.88;;
61962;SDS011;47927;42.646;23.096;2023-06-14T00:15:02;15.15;;;7.85;;
61962;SDS011;47927;42.646;23.096;2023-06-14T00:17:28;18.17;;;7.72;;
61962;SDS011;47927;42.646;23.096;2023-06-14T00:19:58;13.43;;;8.15;;
61962;SDS011;47927;42.646;23.096;2023-06-14T00:22:24;16.75;;;7.55;;
61962;SDS011;47927;42.646;23.096;2023-06-14T00:24:53;13.10;;;8.05;;
61962;SDS011;47927;42.646;23.096;2023-06-14T00:27:18;17.77;;;8.55;;
61962;SDS011;47927;42.646;23.096;2023-06-14T00:29:44;15.25;;;8.32;;
61962;SDS011;47927;42.646;23.096;2023-06-14T00:32:09;20.58;;;8.93;;
61962;SDS011;47927;42.646;23.096;2023-06-14T00:34:35;19.25;;;9.00;;
61962;SDS011;47927;42.646;23.096;2023-06-14T00:37:00;18.08;;;8.70;;
61962;SDS011;47927;42.646;23.096;2023-06-14T00:39:26;16.08;;;8.55;;
61962;SDS011;47927;42.646;23.096;2023-06-14T00:41:52;10.93;;;6.90;;
61962;SDS011;47927;42.646;23.096;2023-06-14T00:44:19;9.38;;;6.35;;
61962;SDS011;47927;42.646;23.096;2023-06-14T00:46:45;8.82;;;5.82;;
61962;SDS011;47927;42.646;23.096;2023-06-14T00:49:11;8.43;;;4.55;;
61962;SDS011;47927;42.646;23.096;2023-06-14T00:51:41;10.68;;;5.35;;
61962;SDS011;47927;42.646;23.096;2023-06-14T00:54:07;6.63;;;4.45;;
61962;SDS011;47927;42.646;23.096;2023-06-14T00:56:37;8.77;;;5.00;;
61962;SDS011;47927;42.646;23.096;2023-06-14T00:59:04;6.32;;;4.43;;
61962;SDS011;47927;42.646;23.096;2023-06-14T01:01:32;12.55;;;5.03;;
61962;SDS011;47927;42.646;23.096;2023-06-14T01:03:59;8.02;;;5.57;;
61962;SDS011;47927;42.646;23.096;2023-06-14T01:06:45;10.88;;;4.78;;
61962;SDS011;47927;42.646;23.096;2023-06-14T01:11:47;6.95;;;5.18;;
61962;SDS011;47927;42.646;23.096;2023-06-14T01:14:41;7.20;;;5.10;;
61962;SDS011;47927;42.646;23.096;2023-06-14T01:17:07;5.70;;;3.95;;
61962;SDS011;47927;42.646;23.096;2023-06-14T01:19:41;9.70;;;4.40;;
61962;SDS011;47927;42.646;23.096;2023-06-14T01:22:07;6.35;;;4.13;;
61962;SDS011;47927;42.646;23.096;2023-06-14T01:24:34;6.93;;;3.78;;
61962;SDS011;47927;42.646;23.096;2023-06-14T01:27:00;5.90;;;4.05;;
61962;SDS011;47927;42.646;23.096;2023-06-14T01:29:26;8.95;;;4.25;;
61962;SDS011;47927;42.646;23.096;2023-06-14T01:31:57;7.90;;;5.10;;
61962;SDS011;47927;42.646;23.096;2023-06-14T01:34:24;12.15;;;4.75;;
61962;SDS011;47927;42.646;23.096;2023-06-14T01:36:50;6.97;;;4.57;;
61962;SDS011;47927;42.646;23.096;2023-06-14T01:39:19;12.82;;;5.00;;
61962;SDS011;47927;42.646;23.096;2023-06-14T01:41:47;7.28;;;4.20;;
61962;SDS011;47927;42.646;23.096;2023-06-14T01:44:14;7.80;;;5.00;;
61962;SDS011;47927;42.646;23.096;2023-06-14T01:46:41;18.27;;;5.07;;
61962;SDS011;47927;42.646;23.096;2023-06-14T01:49:08;7.68;;;4.32;;
61962;SDS011;47927;42.646;23.096;2023-06-14T01:51:34;8.20;;;3.90;;
61962;SDS011;47927;42.646;23.096;2023-06-14T01:54:00;9.23;;;4.28;;
61962;SDS011;47927;42.646;23.096;2023-06-14T01:56:26;11.57;;;3.75;;
61962;SDS011;47927;42.646;23.096;2023-06-14T01:58:52;11.90;;;3.83;;
61962;SDS011;47927;42.646;23.096;2023-06-14T02:01:19;13.30;;;4.57;;
61962;SDS011;47927;42.646;23.096;2023-06-14T02:03:46;5.85;;;4.38;;
61962;SDS011;47927;42.646;23.096;2023-06-14T02:06:15;8.27;;;3.90;;
61962;SDS011;47927;42.646;23.096;2023-06-14T02:08:41;7.28;;;4.18;;
61962;SDS011;47927;42.646;23.096;2023-06-14T02:11:07;9.60;;;4.22;;
61962;SDS011;47927;42.646;23.096;2023-06-14T02:13:34;12.60;;;4.22;;
61962;SDS011;47927;42.646;23.096;2023-06-14T02:16:00;8.93;;;4.18;;
61962;SDS011;47927;42.646;23.096;2023-06-14T02:18:28;6.05;;;3.75;;
61962;SDS011;47927;42.646;23.096;2023-06-14T02:20:55;7.85;;;4.07;;
61962;SDS011;47927;42.646;23.096;2023-06-14T02:23:21;7.05;;;3.90;;
61962;SDS011;47927;42.646;23.096;2023-06-14T02:25:47;8.15;;;4.20;;
61962;SDS011;47927;42.646;23.096;2023-06-14T02:28:13;10.13;;;3.70;;
61962;SDS011;47927;42.646;23.096;2023-06-14T02:30:38;5.28;;;3.90;;
61962;SDS011;47927;42.646;23.096;2023-06-14T02:33:05;8.23;;;4.18;;
61962;SDS011;47927;42.646;23.096;2023-06-14T02:35:31;6.85;;;4.18;;
61962;SDS011;47927;42.646;23.096;2023-06-14T02:37:57;6.22;;;4.25;;
61962;SDS011;47927;42.646;23.096;2023-06-14T02:40:22;8.30;;;4.90;;
61962;SDS011;47927;42.646;23.096;2023-06-14T02:42:48;5.45;;;3.83;;
61962;SDS011;47927;42.646;23.096;2023-06-14T02:45:16;12.02;;;4.80;;
61962;SDS011;47927;42.646;23.096;2023-06-14T02:47:42;8.23;;;3.72;;
61962;SDS011;47927;42.646;23.096;2023-06-14T02:50:08;7.65;;;3.75;;
61962;SDS011;47927;42.646;23.096;2023-06-14T02:52:34;6.28;;;4.10;;
61962;SDS011;47927;42.646;23.096;2023-06-14T02:54:59;7.50;;;3.80;;
61962;SDS011;47927;42.646;23.096;2023-06-14T02:57:25;5.93;;;3.67;;
61962;SDS011;47927;42.646;23.096;2023-06-14T02:59:51;5.30;;;3.80;;
61962;SDS011;47927;42.646;23.096;2023-06-14T03:02:18;16.77;;;3.83;;
61962;SDS011;47927;42.646;23.096;2023-06-14T03:04:44;6.93;;;3.95;;
61962;SDS011;47927;42.646;23.096;2023-06-14T03:07:14;5.57;;;4.13;;
61962;SDS011;47927;42.646;23.096;2023-06-14T03:09:45;6.55;;;3.67;;
61962;SDS011;47927;42.646;23.096;2023-06-14T03:12:11;6.43;;;3.67;;
61962;SDS011;47927;42.646;23.096;2023-06-14T03:14:37;6.22;;;3.92;;
61962;SDS011;47927;42.646;23.096;2023-06-14T03:17:03;6.47;;;4.43;;
61962;SDS011;47927;42.646;23.096;2023-06-14T03:19:30;7.85;;;4.20;;
61962;SDS011;47927;42.646;23.096;2023-06-14T03:21:56;6.10;;;3.92;;
61962;SDS011;47927;42.646;23.096;2023-06-14T03:24:24;6.57;;;4.57;;
61962;SDS011;47927;42.646;23.096;2023-06-14T03:26:55;6.22;;;4.72;;
61962;SDS011;47927;42.646;23.096;2023-06-14T03:29:22;6.60;;;3.95;;
61962;SDS011;47927;42.646;23.096;2023-06-14T03:32:02;8.18;;;4.68;;
61962;SDS011;47927;42.646;23.096;2023-06-14T03:34:54;13.20;;;4.95;;
61962;SDS011;47927;42.646;23.096;2023-06-14T03:37:22;5.30;;;3.80;;
61962;SDS011;47927;42.646;23.096;2023-06-14T03:39:48;8.65;;;3.97;;
61962;SDS011;47927;42.646;23.096;2023-06-14T03:42:18;6.30;;;4.00;;
61962;SDS011;47927;42.646;23.096;2023-06-14T03:44:45;6.05;;;4.07;;
61962;SDS011;47927;42.646;23.096;2023-06-14T03:47:11;6.45;;;4.05;;
61962;SDS011;47927;42.646;23.096;2023-06-14T03:49:36;5.90;;;3.95;;
61962;SDS011;47927;42.646;23.096;2023-06-14T03:52:02;5.32;;;3.58;;
61962;SDS011;47927;42.646;23.096;2023-06-14T03:54:29;6.55;;;4.20;;
61962;SDS011;47927;42.646;23.096;2023-06-14T03:56:58;5.93;;;3.92;;
61962;SDS011;47927;42.646;23.096;2023-06-14T03:59:25;5.53;;;3.58;;
61962;SDS011;47927;42.646;23.096;2023-06-14T04:01:51;7.65;;;3.95;;
61962;SDS011;47927;42.646;23.096;2023-06-14T04:04:18;6.20;;;3.70;;
61962;SDS011;47927;42.646;23.096;2023-06-14T04:06:44;5.20;;;3.95;;
61962;SDS011;47927;42.646;23.096;2023-06-14T04:09:13;6.90;;;4.40;;
61962;SDS011;47927;42.646;23.096;2023-06-14T04:11:40;4.75;;;3.60;;
61962;SDS011;47927;42.646;23.096;2023-06-14T04:14:05;6.60;;;4.15;;
61962;SDS011;47927;42.646;23.096;2023-06-14T04:16:31;6.78;;;4.10;;
61962;SDS011;47927;42.646;23.096;2023-06-14T04:18:58;6.18;;;4.25;;
61962;SDS011;47927;42.646;23.096;2023-06-14T04:21:24;6.20;;;4.22;;
61962;SDS011;47927;42.646;23.096;2023-06-14T04:23:52;8.88;;;5.63;;
61962;SDS011;47927;42.646;23.096;2023-06-14T04:26:21;9.80;;;6.13;;
61962;SDS011;47927;42.646;23.096;2023-06-14T04:28:50;10.10;;;5.10;;
61962;SDS011;47927;42.646;23.096;2023-06-14T04:31:16;10.85;;;5.03;;
61962;SDS011;47927;42.646;23.096;2023-06-14T04:33:43;7.03;;;5.10;;
61962;SDS011;47927;42.646;23.096;2023-06-14T04:36:14;5.88;;;4.57;;
61962;SDS011;47927;42.646;23.096;2023-06-14T04:38:43;6.35;;;5.00;;
61962;SDS011;47927;42.646;23.096;2023-06-14T04:41:11;5.75;;;4.38;;
61962;SDS011;47927;42.646;23.096;2023-06-14T04:43:37;5.53;;;4.22;;
61962;SDS011;47927;42.646;23.096;2023-06-14T04:46:05;7.95;;;4.28;;
61962;SDS011;47927;42.646;23.096;2023-06-14T04:48:39;7.13;;;4.28;;
61962;SDS011;47927;42.646;23.096;2023-06-14T04:51:07;5.72;;;4.13;;
61962;SDS011;47927;42.646;23.096;2023-06-14T04:53:33;6.03;;;3.97;;
61962;SDS011;47927;42.646;23.096;2023-06-14T04:55:59;6.50;;;4.03;;
61962;SDS011;47927;42.646;23.096;2023-06-14T04:58:26;5.72;;;4.65;;
61962;SDS011;47927;42.646;23.096;2023-06-14T05:00:54;9.75;;;5.75;;
61962;SDS011;47927;42.646;23.096;2023-06-14T05:03:21;9.50;;;6.65;;
61962;SDS011;47927;42.646;23.096;2023-06-14T05:05:47;9.00;;;6.72;;
61962;SDS011;47927;42.646;23.096;2023-06-14T05:08:13;6.90;;;6.00;;
61962;SDS011;47927;42.646;23.096;2023-06-14T05:10:39;10.07;;;5.72;;
61962;SDS011;47927;42.646;23.096;2023-06-14T05:13:05;10.77;;;6.53;;
61962;SDS011;47927;42.646;23.096;2023-06-14T05:15:31;10.50;;;6.25;;
61962;SDS011;47927;42.646;23.096;2023-06-14T05:17:56;7.95;;;6.00;;
61962;SDS011;47927;42.646;23.096;2023-06-14T05:20:22;12.30;;;6.03;;
61962;SDS011;47927;42.646;23.096;2023-06-14T05:22:53;10.70;;;7.63;;
61962;SDS011;47927;42.646;23.096;2023-06-14T05:25:21;11.95;;;7.10;;
61962;SDS011;47927;42.646;23.096;2023-06-14T05:27:48;10.32;;;7.20;;
61962;SDS011;47927;42.646;23.096;2023-06-14T05:30:14;16.00;;;7.30;;
61962;SDS011;47927;42.646;23.096;2023-06-14T05:32:40;14.05;;;7.63;;
61962;SDS011;47927;42.646;23.096;2023-06-14T05:35:07;10.52;;;8.05;;
61962;SDS011;47927;42.646;23.096;2023-06-14T05:37:33;13.63;;;7.20;;
61962;SDS011;47927;42.646;23.096;2023-06-14T05:39:58;18.50;;;8.98;;
61962;SDS011;47927;42.646;23.096;2023-06-14T05:42:23;12.10;;;7.90;;
61962;SDS011;47927;42.646;23.096;2023-06-14T05:44:49;11.55;;;7.40;;
61962;SDS011;47927;42.646;23.096;2023-06-14T05:47:15;12.90;;;7.47;;
61962;SDS011;47927;42.646;23.096;2023-06-14T05:49:41;13.55;;;7.35;;
61962;SDS011;47927;42.646;23.096;2023-06-14T05:52:07;12.07;;;6.82;;
61962;SDS011;47927;42.646;23.096;2023-06-14T05:54:33;7.35;;;5.78;;
61962;SDS011;47927;42.646;23.096;2023-06-14T05:56:59;7.38;;;5.63;;
61962;SDS011;47927;42.646;23.096;2023-06-14T05:59:26;7.45;;;6.38;;
61962;SDS011;47927;42.646;23.096;2023-06-14T06:01:52;6.38;;;4.75;;
61962;SDS011;47927;42.646;23.096;2023-06-14T06:04:18;8.60;;;4.88;;
61962;SDS011;47927;42.646;23.096;2023-06-14T06:06:44;7.38;;;5.20;;
61962;SDS011;47927;42.646;23.096;2023-06-14T06:09:10;9.35;;;5.05;;
61962;SDS011;47927;42.646;23.096;2023-06-14T06:11:36;7.15;;;4.63;;
61962;SDS011;47927;42.646;23.096;2023-06-14T06:14:01;6.35;;;5.45;;
61962;SDS011;47927;42.646;23.096;2023-06-14T06:16:27;10.05;;;5.50;;
61962;SDS011;47927;42.646;23.096;2023-06-14T06:18:52;6.55;;;4.40;;
61962;SDS011;47927;42.646;23.096;2023-06-14T06:21:18;6.80;;;5.00;;
61962;SDS011;47927;42.646;23.096;2023-06-14T06:23:43;6.80;;;4.15;;
61962;SDS011;47927;42.646;23.096;2023-06-14T06:26:09;8.98;;;4.78;;
61962;SDS011;47927;42.646;23.096;2023-06-14T06:28:34;6.43;;;4.47;;
61962;SDS011;47927;42.646;23.096;2023-06-14T06:31:00;6.22;;;4.50;;
61962;SDS011;47927;42.646;23.096;2023-06-14T06:33:26;11.10;;;5.57;;
61962;SDS011;47927;42.646;23.096;2023-06-14T06:35:51;8.93;;;5.20;;
61962;SDS011;47927;42.646;23.096;2023-06-14T06:38:17;9.05;;;4.63;;
61962;SDS011;47927;42.646;23.096;2023-06-14T06:40:44;7.50;;;5.10;;
61962;SDS011;47927;42.646;23.096;2023-06-14T06:43:09;13.32;;;5.05;;
61962;SDS011;47927;42.646;23.096;2023-06-14T06:45:43;8.50;;;5.25;;
61962;SDS011;47927;42.646;23.096;2023-06-14T06:48:09;11.00;;;5.45;;
61962;SDS011;47927;42.646;23.096;2023-06-14T06:50:35;6.28;;;5.32;;
61962;SDS011;47927;42.646;23.096;2023-06-14T06:53:01;17.38;;;6.65;;
61962;SDS011;47927;42.646;23.096;2023-06-14T06:55:29;15.88;;;7.40;;
61962;SDS011;47927;42.646;23.096;2023-06-14T06:57:55;14.23;;;7.57;;
61962;SDS011;47927;42.646;23.096;2023-06-14T07:00:20;12.85;;;6.95;;
61962;SDS011;47927;42.646;23.096;2023-06-14T07:02:46;17.40;;;7.82;;
61962;SDS011;47927;42.646;23.096;2023-06-14T07:05:12;16.98;;;7.25;;
61962;SDS011;47927;42.646;23.096;2023-06-14T07:07:38;31.70;;;9.07;;
61962;SDS011;47927;42.646;23.096;2023-06-14T07:10:04;23.77;;;9.80;;
61962;SDS011;47927;42.646;23.096;2023-06-14T07:12:30;23.60;;;9.13;;
61962;SDS011;47927;42.646;23.096;2023-06-14T07:14:59;24.20;;;8.68;;
61962;SDS011;47927;42.646;23.096;2023-06-14T07:17:27;19.98;;;9.45;;
61962;SDS011;47927;42.646;23.096;2023-06-14T07:19:52;21.35;;;9.10;;
61962;SDS011;47927;42.646;23.096;2023-06-14T07:22:18;19.55;;;8.73;;
61962;SDS011;47927;42.646;23.096;2023-06-14T07:24:45;23.80;;;8.45;;
61962;SDS011;47927;42.646;23.096;2023-06-14T07:27:10;22.67;;;9.38;;
61962;SDS011;47927;42.646;23.096;2023-06-14T07:29:36;18.17;;;8.10;;
61962;SDS011;47927;42.646;23.096;2023-06-14T07:32:03;22.05;;;8.40;;
61962;SDS011;47927;42.646;23.096;2023-06-14T07:34:29;14.48;;;7.13;;
61962;SDS011;47927;42.646;23.096;2023-06-14T07:36:55;15.80;;;6.65;;
61962;SDS011;47927;42.646;23.096;2023-06-14T07:39:20;17.63;;;7.40;;
61962;SDS011;47927;42.646;23.096;2023-06-14T07:41:46;17.95;;;6.75;;
61962;SDS011;47927;42.646;23.096;2023-06-14T07:44:11;18.80;;;8.10;;
61962;SDS011;47927;42.646;23.096;2023-06-14T07:46:37;14.15;;;6.93;;
61962;SDS011;47927;42.646;23.096;2023-06-14T07:49:04;11.88;;;7.15;;
61962;SDS011;47927;42.646;23.096;2023-06-14T07:51:30;14.55;;;7.10;;
61962;SDS011;47927;42.646;23.096;2023-06-14T07:53:55;15.70;;;7.13;;
61962;SDS011;47927;42.646;23.096;2023-06-14T07:56:21;12.88;;;7.00;;
61962;SDS011;47927;42.646;23.096;2023-06-14T07:58:48;16.35;;;6.63;;
61962;SDS011;47927;42.646;23.096;2023-06-14T08:01:13;12.00;;;7.20;;
61962;SDS011;47927;42.646;23.096;2023-06-14T08:03:40;16.98;;;7.50;;
61962;SDS011;47927;42.646;23.096;2023-06-14T08:06:06;15.07;;;7.30;;
61962;SDS011;47927;42.646;23.096;2023-06-14T08:08:32;8.25;;;5.85;;
61962;SDS011;47927;42.646;23.096;2023-06-14T08:10:58;9.57;;;6.03;;
61962;SDS011;47927;42.646;23.096;2023-06-14T08:13:24;14.45;;;8.20;;
61962;SDS011;47927;42.646;23.096;2023-06-14T08:15:50;11.32;;;7.35;;
61962;SDS011;47927;42.646;23.096;2023-06-14T08:18:16;14.13;;;6.95;;
61962;SDS011;47927;42.646;23.096;2023-06-14T08:20:41;12.55;;;7.38;;
61962;SDS011;47927;42.646;23.096;2023-06-14T08:23:07;13.70;;;7.07;;
61962;SDS011;47927;42.646;23.096;2023-06-14T08:25:34;11.00;;;7.32;;
61962;SDS011;47927;42.646;23.096;2023-06-14T08:27:59;11.25;;;6.63;;
61962;SDS011;47927;42.646;23.096;2023-06-14T08:30:26;10.55;;;6.50;;
61962;SDS011;47927;42.646;23.096;2023-06-14T08:32:51;10.00;;;5.63;;
61962;SDS011;47927;42.646;23.096;2023-06-14T08:35:17;10.38;;;6.13;;
61962;SDS011;47927;42.646;23.096;2023-06-14T08:37:44;10.93;;;7.03;;
61962;SDS011;47927;42.646;23.096;2023-06-14T08:40:20;17.25;;;7.75;;
61962;SDS011;47927;42.646;23.096;2023-06-14T08:42:47;14.82;;;8.10;;
61962;SDS011;47927;42.646;23.096;2023-06-14T08:45:16;11.80;;;6.80;;
61962;SDS011;47927;42.646;23.096;2023-06-14T08:47:41;9.65;;;6.20;;
61962;SDS011;47927;42.646;23.096;2023-06-14T08:50:07;7.95;;;5.53;;
61962;SDS011;47927;42.646;23.096;2023-06-14T08:52:35;7.22;;;6.20;;
61962;SDS011;47927;42.646;23.096;2023-06-14T08:55:11;8.98;;;6.10;;
61962;SDS011;47927;42.646;23.096;2023-06-14T08:57:37;12.02;;;6.93;;
61962;SDS011;47927;42.646;23.096;2023-06-14T09:00:04;9.93;;;6.20;;
61962;SDS011;47927;42.646;23.096;2023-06-14T09:02:39;14.25;;;7.22;;
61962;SDS011;47927;42.646;23.096;2023-06-14T09:05:11;9.80;;;6.68;;
61962;SDS011;47927;42.646;23.096;2023-06-14T09:07:41;9.57;;;6.25;;
61962;SDS011;47927;42.646;23.096;2023-06-14T09:10:10;6.88;;;5.40;;
61962;SDS011;47927;42.646;23.096;2023-06-14T09:12:38;8.75;;;6.18;;
61962;SDS011;47927;42.646;23.096;2023-06-14T09:15:07;8.95;;;6.00;;
61962;SDS011;47927;42.646;23.096;2023-06-14T09:17:34;8.73;;;6.55;;
61962;SDS011;47927;42.646;23.096;2023-06-14T09:20:01;8.77;;;5.38;;
61962;SDS011;47927;42.646;23.096;2023-06-14T09:22:31;8.88;;;6.68;;
61962;SDS011;47927;42.646;23.096;2023-06-14T09:24:57;10.88;;;5.57;;
61962;SDS011;47927;42.646;23.096;2023-06-14T09:27:27;7.45;;;5.28;;
61962;SDS011;47927;42.646;23.096;2023-06-14T09:29:54;6.07;;;4.88;;
61962;SDS011;47927;42.646;23.096;2023-06-14T09:32:20;8.43;;;5.47;;
61962;SDS011;47927;42.646;23.096;2023-06-14T09:34:47;8.82;;;5.68;;
61962;SDS011;47927;42.646;23.096;2023-06-14T09:37:12;7.03;;;5.20;;
61962;SDS011;47927;42.646;23.096;2023-06-14T09:39:50;7.90;;;5.80;;
61962;SDS011;47927;42.646;23.096;2023-06-14T09:42:19;9.63;;;6.00;;
61962;SDS011;47927;42.646;23.096;2023-06-14T09:44:47;8.70;;;5.40;;
61962;SDS011;47927;42.646;23.096;2023-06-14T09:47:14;6.63;;;5.40;;
61962;SDS011;47927;42.646;23.096;2023-06-14T09:49:41;9.02;;;5.90;;
61962;SDS011;47927;42.646;23.096;2023-06-14T09:52:12;10.80;;;6.22;;
61962;SDS011;47927;42.646;23.096;2023-06-14T09:54:41;14.07;;;7.05;;
61962;SDS011;47927;42.646;23.096;2023-06-14T09:57:11;10.95;;;6.47;;
61962;SDS011;47927;42.646;23.096;2023-06-14T09:59:38;10.23;;;7.22;;
61962;SDS011;47927;42.646;23.096;2023-06-14T10:02:09;8.30;;;6.00;;
61962;SDS011;47927;42.646;23.096;2023-06-14T10:04:45;8.02;;;5.63;;
61962;SDS011;47927;42.646;23.096;2023-06-14T10:07:14;9.75;;;6.75;;
61962;SDS011;47927;42.646;23.096;2023-06-14T10:09:44;11.13;;;5.85;;
61962;SDS011;47927;42.646;23.096;2023-06-14T10:12:17;10.10;;;5.90;;
61962;SDS011;47927;42.646;23.096;2023-06-14T10:14:49;8.35;;;5.90;;
61962;SDS011;47927;42.646;23.096;2023-06-14T10:20:10;15.90;;;6.45;;
61962;SDS011;47927;42.646;23.096;2023-06-14T10:22:47;10.32;;;6.15;;
61962;SDS011;47927;42.646;23.096;2023-06-14T10:25:29;9.65;;;6.25;;
61962;SDS011;47927;42.646;23.096;2023-06-14T10:28:29;7.32;;;5.80;;
61962;SDS011;47927;42.646;23.096;2023-06-14T10:33:35;9.90;;;6.28;;
61962;SDS011;47927;42.646;23.096;2023-06-14T10:36:46;6.50;;;5.65;;
61962;SDS011;47927;42.646;23.096;2023-06-14T10:41:36;6.68;;;5.68;;
61962;SDS011;47927;42.646;23.096;2023-06-14T10:46:38;7.75;;;5.40;;
61962;SDS011;47927;42.646;23.096;2023-06-14T10:49:04;9.30;;;5.82;;
61962;SDS011;47927;42.646;23.096;2023-06-14T10:51:38;8.68;;;5.53;;
61962;SDS011;47927;42.646;23.096;2023-06-14T10:54:20;8.30;;;5.47;;
61962;SDS011;47927;42.646;23.096;2023-06-14T10:56:46;9.85;;;7.07;;
61962;SDS011;47927;42.646;23.096;2023-06-14T10:59:12;8.73;;;5.72;;
61962;SDS011;47927;42.646;23.096;2023-06-14T11:01:40;9.48;;;5.90;;
61962;SDS011;47927;42.646;23.096;2023-06-14T11:04:18;10.55;;;6.03;;
61962;SDS011;47927;42.646;23.096;2023-06-14T11:06:46;7.50;;;5.72;;
61962;SDS011;47927;42.646;23.096;2023-06-14T11:12:10;8.63;;;5.68;;
61962;SDS011;47927;42.646;23.096;2023-06-14T11:14:37;8.95;;;5.47;;
61962;SDS011;47927;42.646;23.096;2023-06-14T11:17:04;8.45;;;5.60;;
61962;SDS011;47927;42.646;23.096;2023-06-14T11:19:30;8.50;;;5.63;;
61962;SDS011;47927;42.646;23.096;2023-06-14T11:21:56;7.40;;;5.55;;
61962;SDS011;47927;42.646;23.096;2023-06-14T11:24:22;12.18;;;7.40;;
61962;SDS011;47927;42.646;23.096;2023-06-14T11:26:48;12.63;;;7.30;;
61962;SDS011;47927;42.646;23.096;2023-06-14T11:29:15;8.85;;;6.78;;
61962;SDS011;47927;42.646;23.096;2023-06-14T11:31:44;10.43;;;6.25;;
61962;SDS011;47927;42.646;23.096;2023-06-14T11:34:11;9.20;;;6.63;;
61962;SDS011;47927;42.646;23.096;2023-06-14T11:36:38;6.97;;;6.03;;
61962;SDS011;47927;42.646;23.096;2023-06-14T11:39:04;7.07;;;6.05;;
61962;SDS011;47927;42.646;23.096;2023-06-14T11:41:34;10.60;;;6.60;;
61962;SDS011;47927;42.646;23.096;2023-06-14T11:44:02;7.10;;;5.95;;
61962;SDS011;47927;42.646;23.096;2023-06-14T11:46:28;8.98;;;8.02;;
61962;SDS011;47927;42.646;23.096;2023-06-14T11:48:54;11.63;;;8.60;;
61962;SDS011;47927;42.646;23.096;2023-06-14T11:51:19;8.15;;;7.03;;
61962;SDS011;47927;42.646;23.096;2023-06-14T11:53:46;14.15;;;7.75;;
61962;SDS011;47927;42.646;23.096;2023-06-14T11:56:12;11.02;;;7.60;;
61962;SDS011;47927;42.646;23.096;2023-06-14T11:58:38;9.10;;;7.47;;
61962;SDS011;47927;42.646;23.096;2023-06-14T12:01:05;10.35;;;8.00;;
61962;SDS011;47927;42.646;23.096;2023-06-14T12:03:31;8.88;;;7.70;;
61962;SDS011;47927;42.646;23.096;2023-06-14T12:06:01;8.68;;;7.30;;
61962;SDS011;47927;42.646;23.096;2023-06-14T12:08:35;10.13;;;7.72;;
61962;SDS011;47927;42.646;23.096;2023-06-14T12:11:05;8.73;;;7.28;;
61962;SDS011;47927;42.646;23.096;2023-06-14T12:13:37;9.98;;;6.43;;
61962;SDS011;47927;42.646;23.096;2023-06-14T12:16:06;9.80;;;7.72;;
61962;SDS011;47927;42.646;23.096;2023-06-14T12:18:36;9.32;;;6.80;;
61962;SDS011;47927;42.646;23.096;2023-06-14T12:21:04;10.97;;;7.50;;
61962;SDS011;47927;42.646;23.096;2023-06-14T12:23:47;11.45;;;7.10;;
61962;SDS011;47927;42.646;23.096;2023-06-14T12:26:15;9.82;;;7.35;;
61962;SDS011;47927;42.646;23.096;2023-06-14T12:28:42;9.07;;;7.32;;
61962;SDS011;47927;42.646;23.096;2023-06-14T12:31:10;11.93;;;7.80;;
61962;SDS011;47927;42.646;23.096;2023-06-14T12:33:37;9.05;;;6.97;;
61962;SDS011;47927;42.646;23.096;2023-06-14T12:36:04;8.88;;;6.72;;
61962;SDS011;47927;42.646;23.096;2023-06-14T12:38:31;11.38;;;7.25;;
61962;SDS011;47927;42.646;23.096;2023-06-14T12:40:57;11.70;;;8.27;;
61962;SDS011;47927;42.646;23.096;2023-06-14T12:43:23;10.27;;;7.70;;
61962;SDS011;47927;42.646;23.096;2023-06-14T12:45:49;9.90;;;7.32;;
61962;SDS011;47927;42.646;23.096;2023-06-14T12:48:15;13.88;;;7.65;;
61962;SDS011;47927;42.646;23.096;2023-06-14T12:50:40;9.80;;;8.13;;
61962;SDS011;47927;42.646;23.096;2023-06-14T12:53:06;10.02;;;8.45;;
61962;SDS011;47927;42.646;23.096;2023-06-14T12:55:32;11.13;;;8.32;;
61962;SDS011;47927;42.646;23.096;2023-06-14T12:57:57;24.00;;;11.57;;
61962;SDS011;47927;42.646;23.096;2023-06-14T13:00:23;16.23;;;9.30;;
61962;SDS011;47927;42.646;23.096;2023-06-14T13:02:51;13.43;;;8.88;;
61962;SDS011;47927;42.646;23.096;2023-06-14T13:05:17;12.20;;;9.27;;
61962;SDS011;47927;42.646;23.096;2023-06-14T13:07:43;11.73;;;9.73;;
61962;SDS011;47927;42.646;23.096;2023-06-14T13:10:08;12.48;;;9.48;;
61962;SDS011;47927;42.646;23.096;2023-06-14T13:12:34;13.95;;;9.73;;
61962;SDS011;47927;42.646;23.096;2023-06-14T13:15:00;15.40;;;10.10;;
61962;SDS011;47927;42.646;23.096;2023-06-14T13:17:25;11.95;;;9.02;;
61962;SDS011;47927;42.646;23.096;2023-06-14T13:19:51;9.90;;;8.52;;
61962;SDS011;47927;42.646;23.096;2023-06-14T13:22:16;11.90;;;8.32;;
61962;SDS011;47927;42.646;23.096;2023-06-14T13:24:42;10.60;;;8.63;;
61962;SDS011;47927;42.646;23.096;2023-06-14T13:27:08;11.02;;;8.50;;
61962;SDS011;47927;42.646;23.096;2023-06-14T13:29:33;12.32;;;8.27;;
61962;SDS011;47927;42.646;23.096;2023-06-14T13:32:01;12.10;;;7.88;;
61962;SDS011;47927;42.646;23.096;2023-06-14T13:34:27;10.52;;;7.45;;
61962;SDS011;47927;42.646;23.096;2023-06-14T13:36:53;10.77;;;7.50;;
61962;SDS011;47927;42.646;23.096;2023-06-14T13:39:19;9.77;;;7.15;;
61962;SDS011;47927;42.646;23.096;2023-06-14T13:41:44;9.02;;;6.43;;
61962;SDS011;47927;42.646;23.096;2023-06-14T13:44:10;9.05;;;6.35;;
61962;SDS011;47927;42.646;23.096;2023-06-14T13:46:40;10.50;;;6.03;;
61962;SDS011;47927;42.646;23.096;2023-06-14T13:49:07;7.68;;;5.90;;
61962;SDS011;47927;42.646;23.096;2023-06-14T13:51:33;7.97;;;5.35;;
61962;SDS011;47927;42.646;23.096;2023-06-14T13:54:00;8.48;;;5.97;;
61962;SDS011;47927;42.646;23.096;2023-06-14T13:56:26;7.50;;;5.22;;
61962;SDS011;47927;42.646;23.096;2023-06-14T13:58:52;6.47;;;5.22;;
61962;SDS011;47927;42.646;23.096;2023-06-14T14:01:17;9.27;;;5.95;;
61962;SDS011;47927;42.646;23.096;2023-06-14T14:03:48;5.45;;;4.22;;
61962;SDS011;47927;42.646;23.096;2023-06-14T14:06:15;5.45;;;4.05;;
61962;SDS011;47927;42.646;23.096;2023-06-14T14:08:41;5.85;;;4.60;;
61962;SDS011;47927;42.646;23.096;2023-06-14T14:11:07;12.25;;;4.10;;
61962;SDS011;47927;42.646;23.096;2023-06-14T14:13:33;6.45;;;4.70;;
61962;SDS011;47927;42.646;23.096;2023-06-14T14:16:01;6.20;;;4.28;;
61962;SDS011;47927;42.646;23.096;2023-06-14T14:18:26;5.72;;;4.53;;
61962;SDS011;47927;42.646;23.096;2023-06-14T14:20:52;6.43;;;4.15;;
61962;SDS011;47927;42.646;23.096;2023-06-14T14:23:17;6.90;;;3.15;;
61962;SDS011;47927;42.646;23.096;2023-06-14T14:25:45;9.93;;;3.50;;
61962;SDS011;47927;42.646;23.096;2023-06-14T14:28:10;4.95;;;3.97;;
61962;SDS011;47927;42.646;23.096;2023-06-14T14:30:36;4.90;;;3.85;;
61962;SDS011;47927;42.646;23.096;2023-06-14T14:33:04;8.20;;;4.93;;
61962;SDS011;47927;42.646;23.096;2023-06-14T14:35:30;5.45;;;4.30;;
61962;SDS011;47927;42.646;23.096;2023-06-14T14:37:56;8.73;;;5.38;;
61962;SDS011;47927;42.646;23.096;2023-06-14T14:40:22;6.60;;;4.90;;
61962;SDS011;47927;42.646;23.096;2023-06-14T14:42:47;8.30;;;4.55;;
61962;SDS011;47927;42.646;23.096;2023-06-14T14:45:13;7.82;;;4.88;;